sensor_id;sensor_type;location;lat;lon;timestamp;P1;durP1;ratioP1;P2;durP2;ratioP2
25525;SDS011;13424;48.424;11.258;2023-12-07T00:01:42;27.17;;;17.08;;
25525;SDS011;13424;48.424;11.258;2023-12-07T00:04:08;28.90;;;18.17;;
25525;SDS011;13424;48.424;11.258;2023-12-07T00:06:34;30.75;;;18.73;;
25525;SDS011;13424;48.424;11.258;2023-12-07T00:09:00;32.47;;;17.30;;
25525;SDS011;13424;48.424;11.258;2023-12-07T00:11:26;28.40;;;16.95;;
25525;SDS011;13424;48.424;11.258;2023-12-07T00:13:52;32.08;;;18.13;;
25525;SDS011;13424;48.424;11.258;2023-12-07T00:16:18;29.60;;;18.35;;
25525;SDS011;13424;48.424;11.258;2023-12-07T00:18:44;34.47;;;19.33;;
25525;SDS011;13424;48.424;11.258;2023-12-07T00:21:10;29.42;;;18.13;;
25525;SDS011;13424;48.424;11.258;2023-12-07T00:23:36;33.55;;;18.00;;
25525;SDS011;13424;48.424;11.258;2023-12-07T00:26:04;29.15;;;17.40;;
25525;SDS011;13424;48.424;11.258;2023-12-07T00:28:31;28.40;;;17.30;;
25525;SDS011;13424;48.424;11.258;2023-12-07T00:30:57;30.13;;;17.40;;
25525;SDS011;13424;48.424;11.258;2023-12-07T00:33:23;33.53;;;17.77;;
25525;SDS011;13424;48.424;11.258;2023-12-07T00:35:49;31.40;;;18.45;;
25525;SDS011;13424;48.424;11.258;2023-12-07T00:38:15;33.97;;;17.85;;
25525;SDS011;13424;48.424;11.258;2023-12-07T00:40:41;33.60;;;19.52;;
25525;SDS011;13424;48.424;11.258;2023-12-07T00:43:07;30.70;;;18.15;;
25525;SDS011;13424;48.424;11.258;2023-12-07T00:45:33;31.55;;;19.05;;
25525;SDS011;13424;48.424;11.258;2023-12-07T00:47:59;33.72;;;19.08;;
25525;SDS011;13424;48.424;11.258;2023-12-07T00:50:25;32.58;;;18.67;;
25525;SDS011;13424;48.424;11.258;2023-12-07T00:52:51;32.65;;;18.73;;
25525;SDS011;13424;48.424;11.258;2023-12-07T00:55:17;34.80;;;19.73;;
25525;SDS011;13424;48.424;11.258;2023-12-07T00:57:43;33.47;;;20.23;;
25525;SDS011;13424;48.424;11.258;2023-12-07T01:00:10;32.72;;;20.27;;
25525;SDS011;13424;48.424;11.258;2023-12-07T01:02:36;33.80;;;19.40;;
25525;SDS011;13424;48.424;11.258;2023-12-07T01:05:03;35.85;;;20.40;;
25525;SDS011;13424;48.424;11.258;2023-12-07T01:07:29;30.25;;;18.95;;
25525;SDS011;13424;48.424;11.258;2023-12-07T01:09:55;32.22;;;20.20;;
25525;SDS011;13424;48.424;11.258;2023-12-07T01:12:21;36.55;;;20.25;;
25525;SDS011;13424;48.424;11.258;2023-12-07T01:14:47;29.17;;;19.20;;
25525;SDS011;13424;48.424;11.258;2023-12-07T01:17:13;33.05;;;20.52;;
25525;SDS011;13424;48.424;11.258;2023-12-07T01:19:39;32.28;;;19.75;;
25525;SDS011;13424;48.424;11.258;2023-12-07T01:22:05;32.95;;;19.05;;
25525;SDS011;13424;48.424;11.258;2023-12-07T01:24:31;30.55;;;18.67;;
25525;SDS011;13424;48.424;11.258;2023-12-07T01:26:58;35.10;;;19.25;;
25525;SDS011;13424;48.424;11.258;2023-12-07T01:29:24;31.67;;;18.20;;
25525;SDS011;13424;48.424;11.258;2023-12-07T01:31:50;27.13;;;18.60;;
25525;SDS011;13424;48.424;11.258;2023-12-07T01:34:17;35.88;;;19.90;;
25525;SDS011;13424;48.424;11.258;2023-12-07T01:36:46;33.75;;;18.73;;
25525;SDS011;13424;48.424;11.258;2023-12-07T01:39:12;32.75;;;19.50;;
25525;SDS011;13424;48.424;11.258;2023-12-07T01:41:40;31.30;;;18.90;;
25525;SDS011;13424;48.424;11.258;2023-12-07T01:44:06;34.42;;;19.45;;
25525;SDS011;13424;48.424;11.258;2023-12-07T01:49:55;31.92;;;19.38;;
25525;SDS011;13424;48.424;11.258;2023-12-07T01:52:22;33.72;;;19.08;;
25525;SDS011;13424;48.424;11.258;2023-12-07T01:54:50;36.45;;;20.05;;
25525;SDS011;13424;48.424;11.258;2023-12-07T01:57:16;38.10;;;21.60;;
25525;SDS011;13424;48.424;11.258;2023-12-07T01:59:42;31.80;;;19.02;;
25525;SDS011;13424;48.424;11.258;2023-12-07T02:02:18;34.22;;;19.30;;
25525;SDS011;13424;48.424;11.258;2023-12-07T02:04:44;36.63;;;20.35;;
25525;SDS011;13424;48.424;11.258;2023-12-07T02:07:10;36.50;;;21.35;;
25525;SDS011;13424;48.424;11.258;2023-12-07T02:09:37;37.90;;;20.45;;
25525;SDS011;13424;48.424;11.258;2023-12-07T02:15:47;41.28;;;21.27;;
25525;SDS011;13424;48.424;11.258;2023-12-07T02:18:38;34.10;;;20.58;;
25525;SDS011;13424;48.424;11.258;2023-12-07T02:21:25;34.15;;;19.95;;
25525;SDS011;13424;48.424;11.258;2023-12-07T02:24:03;34.63;;;20.50;;
25525;SDS011;13424;48.424;11.258;2023-12-07T02:26:36;34.22;;;20.50;;
25525;SDS011;13424;48.424;11.258;2023-12-07T02:29:03;33.78;;;18.95;;
25525;SDS011;13424;48.424;11.258;2023-12-07T02:31:29;34.58;;;20.40;;
25525;SDS011;13424;48.424;11.258;2023-12-07T02:37:06;35.40;;;21.07;;
25525;SDS011;13424;48.424;11.258;2023-12-07T02:39:32;37.13;;;20.70;;
25525;SDS011;13424;48.424;11.258;2023-12-07T02:41:58;35.35;;;19.98;;
25525;SDS011;13424;48.424;11.258;2023-12-07T02:44:25;33.53;;;20.25;;
25525;SDS011;13424;48.424;11.258;2023-12-07T02:46:51;37.53;;;20.25;;
25525;SDS011;13424;48.424;11.258;2023-12-07T02:49:17;33.42;;;20.77;;
25525;SDS011;13424;48.424;11.258;2023-12-07T02:51:43;30.08;;;19.58;;
25525;SDS011;13424;48.424;11.258;2023-12-07T02:54:09;33.08;;;18.90;;
25525;SDS011;13424;48.424;11.258;2023-12-07T02:56:35;33.75;;;19.10;;
25525;SDS011;13424;48.424;11.258;2023-12-07T02:59:01;31.10;;;19.75;;
25525;SDS011;13424;48.424;11.258;2023-12-07T03:01:27;34.30;;;19.45;;
25525;SDS011;13424;48.424;11.258;2023-12-07T03:03:56;34.10;;;20.38;;
25525;SDS011;13424;48.424;11.258;2023-12-07T03:06:22;37.42;;;20.10;;
25525;SDS011;13424;48.424;11.258;2023-12-07T03:08:48;33.30;;;19.23;;
25525;SDS011;13424;48.424;11.258;2023-12-07T03:11:14;39.95;;;20.77;;
25525;SDS011;13424;48.424;11.258;2023-12-07T03:13:40;33.35;;;20.25;;
25525;SDS011;13424;48.424;11.258;2023-12-07T03:16:08;35.97;;;18.58;;
25525;SDS011;13424;48.424;11.258;2023-12-07T03:18:36;31.27;;;18.63;;
25525;SDS011;13424;48.424;11.258;2023-12-07T03:21:02;33.10;;;19.38;;
25525;SDS011;13424;48.424;11.258;2023-12-07T03:23:38;33.38;;;19.70;;
25525;SDS011;13424;48.424;11.258;2023-12-07T03:26:04;34.28;;;19.23;;
25525;SDS011;13424;48.424;11.258;2023-12-07T03:28:30;32.63;;;19.92;;
25525;SDS011;13424;48.424;11.258;2023-12-07T03:30:56;33.35;;;18.42;;
25525;SDS011;13424;48.424;11.258;2023-12-07T03:33:22;33.30;;;20.23;;
25525;SDS011;13424;48.424;11.258;2023-12-07T03:35:48;29.20;;;18.10;;
25525;SDS011;13424;48.424;11.258;2023-12-07T03:38:14;26.85;;;17.15;;
25525;SDS011;13424;48.424;11.258;2023-12-07T03:40:40;27.38;;;18.13;;
25525;SDS011;13424;48.424;11.258;2023-12-07T03:43:06;29.08;;;18.95;;
25525;SDS011;13424;48.424;11.258;2023-12-07T03:45:32;33.25;;;18.70;;
25525;SDS011;13424;48.424;11.258;2023-12-07T03:47:58;32.85;;;18.50;;
25525;SDS011;13424;48.424;11.258;2023-12-07T03:50:24;31.55;;;18.05;;
25525;SDS011;13424;48.424;11.258;2023-12-07T03:52:50;30.35;;;17.88;;
25525;SDS011;13424;48.424;11.258;2023-12-07T03:55:16;32.47;;;18.35;;
25525;SDS011;13424;48.424;11.258;2023-12-07T03:57:42;26.63;;;17.80;;
25525;SDS011;13424;48.424;11.258;2023-12-07T04:03:38;33.40;;;17.80;;
25525;SDS011;13424;48.424;11.258;2023-12-07T04:06:04;30.52;;;18.17;;
25525;SDS011;13424;48.424;11.258;2023-12-07T04:08:30;29.70;;;17.60;;
25525;SDS011;13424;48.424;11.258;2023-12-07T04:10:56;29.58;;;17.10;;
25525;SDS011;13424;48.424;11.258;2023-12-07T04:13:22;29.95;;;17.77;;
25525;SDS011;13424;48.424;11.258;2023-12-07T04:15:48;24.00;;;16.20;;
25525;SDS011;13424;48.424;11.258;2023-12-07T04:18:14;28.48;;;16.45;;
25525;SDS011;13424;48.424;11.258;2023-12-07T04:20:41;28.80;;;15.93;;
25525;SDS011;13424;48.424;11.258;2023-12-07T04:23:07;24.45;;;15.65;;
25525;SDS011;13424;48.424;11.258;2023-12-07T04:25:33;23.48;;;15.48;;
25525;SDS011;13424;48.424;11.258;2023-12-07T04:27:59;29.35;;;16.50;;
25525;SDS011;13424;48.424;11.258;2023-12-07T04:30:25;28.48;;;15.48;;
25525;SDS011;13424;48.424;11.258;2023-12-07T04:32:51;26.25;;;15.73;;
25525;SDS011;13424;48.424;11.258;2023-12-07T04:35:17;24.00;;;15.95;;
25525;SDS011;13424;48.424;11.258;2023-12-07T04:37:43;28.05;;;17.20;;
25525;SDS011;13424;48.424;11.258;2023-12-07T04:40:09;25.15;;;15.80;;
25525;SDS011;13424;48.424;11.258;2023-12-07T04:42:36;26.92;;;15.95;;
25525;SDS011;13424;48.424;11.258;2023-12-07T04:45:03;27.45;;;15.50;;
25525;SDS011;13424;48.424;11.258;2023-12-07T04:47:29;23.35;;;15.23;;
25525;SDS011;13424;48.424;11.258;2023-12-07T04:49:57;24.27;;;16.58;;
25525;SDS011;13424;48.424;11.258;2023-12-07T04:52:23;22.85;;;14.57;;
25525;SDS011;13424;48.424;11.258;2023-12-07T04:54:49;27.05;;;14.80;;
25525;SDS011;13424;48.424;11.258;2023-12-07T04:57:15;21.63;;;13.60;;
25525;SDS011;13424;48.424;11.258;2023-12-07T04:59:41;26.02;;;14.95;;
25525;SDS011;13424;48.424;11.258;2023-12-07T05:02:15;29.48;;;15.95;;
25525;SDS011;13424;48.424;11.258;2023-12-07T05:04:43;27.08;;;14.88;;
25525;SDS011;13424;48.424;11.258;2023-12-07T05:07:12;27.55;;;16.83;;
25525;SDS011;13424;48.424;11.258;2023-12-07T05:09:39;26.27;;;16.27;;
25525;SDS011;13424;48.424;11.258;2023-12-07T05:12:08;26.60;;;15.25;;
25525;SDS011;13424;48.424;11.258;2023-12-07T05:14:34;27.17;;;16.90;;
25525;SDS011;13424;48.424;11.258;2023-12-07T05:17:07;25.80;;;15.93;;
25525;SDS011;13424;48.424;11.258;2023-12-07T05:19:33;28.70;;;16.98;;
25525;SDS011;13424;48.424;11.258;2023-12-07T05:21:59;26.05;;;15.38;;
25525;SDS011;13424;48.424;11.258;2023-12-07T05:24:25;24.02;;;15.20;;
25525;SDS011;13424;48.424;11.258;2023-12-07T05:26:51;24.42;;;15.90;;
25525;SDS011;13424;48.424;11.258;2023-12-07T05:29:17;29.13;;;17.25;;
25525;SDS011;13424;48.424;11.258;2023-12-07T05:31:44;28.35;;;16.10;;
25525;SDS011;13424;48.424;11.258;2023-12-07T05:34:10;24.40;;;15.10;;
25525;SDS011;13424;48.424;11.258;2023-12-07T05:36:36;25.15;;;16.27;;
25525;SDS011;13424;48.424;11.258;2023-12-07T05:39:02;26.63;;;15.20;;
25525;SDS011;13424;48.424;11.258;2023-12-07T05:41:28;27.67;;;16.80;;
25525;SDS011;13424;48.424;11.258;2023-12-07T05:43:54;32.35;;;18.92;;
25525;SDS011;13424;48.424;11.258;2023-12-07T05:46:48;35.72;;;20.75;;
25525;SDS011;13424;48.424;11.258;2023-12-07T05:49:15;37.08;;;20.38;;
25525;SDS011;13424;48.424;11.258;2023-12-07T05:51:41;32.00;;;18.75;;
25525;SDS011;13424;48.424;11.258;2023-12-07T05:54:08;28.70;;;18.27;;
25525;SDS011;13424;48.424;11.258;2023-12-07T05:56:34;34.10;;;19.25;;
25525;SDS011;13424;48.424;11.258;2023-12-07T05:59:00;30.45;;;17.65;;
25525;SDS011;13424;48.424;11.258;2023-12-07T06:01:26;29.27;;;15.88;;
25525;SDS011;13424;48.424;11.258;2023-12-07T06:03:52;31.30;;;17.20;;
25525;SDS011;13424;48.424;11.258;2023-12-07T06:06:18;26.20;;;15.75;;
25525;SDS011;13424;48.424;11.258;2023-12-07T06:08:47;28.30;;;15.38;;
25525;SDS011;13424;48.424;11.258;2023-12-07T06:14:48;21.67;;;13.77;;
25525;SDS011;13424;48.424;11.258;2023-12-07T06:17:14;24.65;;;14.73;;
25525;SDS011;13424;48.424;11.258;2023-12-07T06:19:41;28.52;;;15.20;;
25525;SDS011;13424;48.424;11.258;2023-12-07T06:22:08;27.52;;;15.98;;
25525;SDS011;13424;48.424;11.258;2023-12-07T06:24:34;28.20;;;16.20;;
25525;SDS011;13424;48.424;11.258;2023-12-07T06:27:38;32.25;;;17.55;;
25525;SDS011;13424;48.424;11.258;2023-12-07T06:30:05;40.92;;;19.85;;
25525;SDS011;13424;48.424;11.258;2023-12-07T06:32:32;36.85;;;19.90;;
25525;SDS011;13424;48.424;11.258;2023-12-07T06:34:59;74.68;;;31.60;;
25525;SDS011;13424;48.424;11.258;2023-12-07T06:37:26;45.05;;;22.45;;
25525;SDS011;13424;48.424;11.258;2023-12-07T06:39:52;46.38;;;22.75;;
25525;SDS011;13424;48.424;11.258;2023-12-07T06:42:18;34.60;;;18.50;;
25525;SDS011;13424;48.424;11.258;2023-12-07T06:44:47;26.25;;;15.32;;
25525;SDS011;13424;48.424;11.258;2023-12-07T06:47:15;23.98;;;15.10;;
25525;SDS011;13424;48.424;11.258;2023-12-07T06:49:41;25.48;;;14.70;;
25525;SDS011;13424;48.424;11.258;2023-12-07T06:52:07;29.63;;;15.45;;
25525;SDS011;13424;48.424;11.258;2023-12-07T06:54:34;25.77;;;13.55;;
25525;SDS011;13424;48.424;11.258;2023-12-07T06:57:00;24.58;;;13.90;;
25525;SDS011;13424;48.424;11.258;2023-12-07T06:59:26;26.55;;;14.45;;
25525;SDS011;13424;48.424;11.258;2023-12-07T07:01:52;27.05;;;15.52;;
25525;SDS011;13424;48.424;11.258;2023-12-07T07:04:18;22.58;;;15.18;;
25525;SDS011;13424;48.424;11.258;2023-12-07T07:06:44;22.92;;;13.85;;
25525;SDS011;13424;48.424;11.258;2023-12-07T07:13:35;26.83;;;14.13;;
25525;SDS011;13424;48.424;11.258;2023-12-07T07:16:01;24.02;;;14.65;;
25525;SDS011;13424;48.424;11.258;2023-12-07T07:18:28;25.55;;;14.07;;
25525;SDS011;13424;48.424;11.258;2023-12-07T07:20:54;24.75;;;14.10;;
25525;SDS011;13424;48.424;11.258;2023-12-07T07:23:21;26.35;;;15.23;;
25525;SDS011;13424;48.424;11.258;2023-12-07T07:25:47;27.10;;;14.85;;
25525;SDS011;13424;48.424;11.258;2023-12-07T07:28:12;25.23;;;13.75;;
25525;SDS011;13424;48.424;11.258;2023-12-07T07:30:38;25.70;;;13.15;;
25525;SDS011;13424;48.424;11.258;2023-12-07T07:33:05;24.08;;;14.43;;
25525;SDS011;13424;48.424;11.258;2023-12-07T07:35:31;25.92;;;13.93;;
25525;SDS011;13424;48.424;11.258;2023-12-07T07:37:57;24.45;;;14.88;;
25525;SDS011;13424;48.424;11.258;2023-12-07T07:40:23;25.23;;;14.95;;
25525;SDS011;13424;48.424;11.258;2023-12-07T07:42:50;24.40;;;13.35;;
25525;SDS011;13424;48.424;11.258;2023-12-07T07:45:16;23.92;;;14.82;;
25525;SDS011;13424;48.424;11.258;2023-12-07T07:47:42;25.80;;;14.13;;
25525;SDS011;13424;48.424;11.258;2023-12-07T07:50:09;24.67;;;14.00;;
25525;SDS011;13424;48.424;11.258;2023-12-07T07:52:36;23.25;;;15.13;;
25525;SDS011;13424;48.424;11.258;2023-12-07T07:55:03;21.70;;;13.32;;
25525;SDS011;13424;48.424;11.258;2023-12-07T07:57:30;22.75;;;14.18;;
25525;SDS011;13424;48.424;11.258;2023-12-07T07:59:57;22.85;;;12.82;;
25525;SDS011;13424;48.424;11.258;2023-12-07T08:02:23;21.80;;;12.95;;
25525;SDS011;13424;48.424;11.258;2023-12-07T08:04:49;25.65;;;13.52;;
25525;SDS011;13424;48.424;11.258;2023-12-07T08:07:17;19.08;;;12.77;;
25525;SDS011;13424;48.424;11.258;2023-12-07T08:09:43;23.08;;;14.85;;
25525;SDS011;13424;48.424;11.258;2023-12-07T08:12:12;23.55;;;13.68;;
25525;SDS011;13424;48.424;11.258;2023-12-07T08:14:38;24.27;;;14.10;;
25525;SDS011;13424;48.424;11.258;2023-12-07T08:17:05;20.75;;;12.98;;
25525;SDS011;13424;48.424;11.258;2023-12-07T08:19:31;23.30;;;13.50;;
25525;SDS011;13424;48.424;11.258;2023-12-07T08:21:57;21.35;;;13.50;;
25525;SDS011;13424;48.424;11.258;2023-12-07T08:24:23;20.92;;;13.32;;
25525;SDS011;13424;48.424;11.258;2023-12-07T08:26:50;22.45;;;13.70;;
25525;SDS011;13424;48.424;11.258;2023-12-07T08:29:16;23.35;;;11.80;;
25525;SDS011;13424;48.424;11.258;2023-12-07T08:31:42;21.17;;;13.32;;
25525;SDS011;13424;48.424;11.258;2023-12-07T08:34:08;24.92;;;13.50;;
25525;SDS011;13424;48.424;11.258;2023-12-07T08:36:34;23.15;;;13.38;;
25525;SDS011;13424;48.424;11.258;2023-12-07T08:39:00;21.45;;;13.88;;
25525;SDS011;13424;48.424;11.258;2023-12-07T08:41:26;20.10;;;13.27;;
25525;SDS011;13424;48.424;11.258;2023-12-07T08:43:52;20.52;;;13.60;;
25525;SDS011;13424;48.424;11.258;2023-12-07T08:46:18;21.73;;;13.95;;
25525;SDS011;13424;48.424;11.258;2023-12-07T08:48:44;23.13;;;13.35;;
25525;SDS011;13424;48.424;11.258;2023-12-07T08:51:10;23.65;;;14.10;;
25525;SDS011;13424;48.424;11.258;2023-12-07T08:53:38;21.00;;;13.75;;
25525;SDS011;13424;48.424;11.258;2023-12-07T08:56:04;20.17;;;13.80;;
25525;SDS011;13424;48.424;11.258;2023-12-07T08:58:31;22.02;;;14.10;;
25525;SDS011;13424;48.424;11.258;2023-12-07T09:00:57;22.52;;;14.32;;
25525;SDS011;13424;48.424;11.258;2023-12-07T09:03:23;29.48;;;16.20;;
25525;SDS011;13424;48.424;11.258;2023-12-07T09:05:53;28.83;;;17.27;;
25525;SDS011;13424;48.424;11.258;2023-12-07T09:08:19;31.80;;;17.45;;
25525;SDS011;13424;48.424;11.258;2023-12-07T09:10:45;23.92;;;15.82;;
25525;SDS011;13424;48.424;11.258;2023-12-07T09:13:12;25.58;;;15.68;;
25525;SDS011;13424;48.424;11.258;2023-12-07T09:15:38;24.63;;;14.85;;
25525;SDS011;13424;48.424;11.258;2023-12-07T09:18:04;25.90;;;16.02;;
25525;SDS011;13424;48.424;11.258;2023-12-07T09:20:30;24.27;;;15.98;;
25525;SDS011;13424;48.424;11.258;2023-12-07T09:22:56;21.30;;;15.60;;
25525;SDS011;13424;48.424;11.258;2023-12-07T09:25:22;23.08;;;14.57;;
25525;SDS011;13424;48.424;11.258;2023-12-07T09:27:49;22.75;;;14.25;;
25525;SDS011;13424;48.424;11.258;2023-12-07T09:30:16;26.77;;;14.68;;
25525;SDS011;13424;48.424;11.258;2023-12-07T09:36:17;23.55;;;13.90;;
25525;SDS011;13424;48.424;11.258;2023-12-07T09:38:47;22.08;;;13.65;;
25525;SDS011;13424;48.424;11.258;2023-12-07T09:41:13;22.35;;;14.82;;
25525;SDS011;13424;48.424;11.258;2023-12-07T09:43:39;25.35;;;14.57;;
25525;SDS011;13424;48.424;11.258;2023-12-07T09:46:05;19.17;;;13.60;;
25525;SDS011;13424;48.424;11.258;2023-12-07T09:48:32;20.83;;;13.32;;
25525;SDS011;13424;48.424;11.258;2023-12-07T09:50:59;20.58;;;13.63;;
25525;SDS011;13424;48.424;11.258;2023-12-07T09:53:31;25.60;;;15.27;;
25525;SDS011;13424;48.424;11.258;2023-12-07T09:55:58;21.42;;;13.73;;
25525;SDS011;13424;48.424;11.258;2023-12-07T09:58:25;20.95;;;12.85;;
25525;SDS011;13424;48.424;11.258;2023-12-07T10:00:52;20.60;;;13.32;;
25525;SDS011;13424;48.424;11.258;2023-12-07T10:03:22;22.67;;;14.77;;
25525;SDS011;13424;48.424;11.258;2023-12-07T10:05:56;21.80;;;14.43;;
25525;SDS011;13424;48.424;11.258;2023-12-07T10:08:29;19.55;;;12.77;;
25525;SDS011;13424;48.424;11.258;2023-12-07T10:11:09;24.55;;;14.05;;
25525;SDS011;13424;48.424;11.258;2023-12-07T10:13:38;20.58;;;12.73;;
25525;SDS011;13424;48.424;11.258;2023-12-07T10:16:13;22.70;;;11.77;;
25525;SDS011;13424;48.424;11.258;2023-12-07T10:18:41;17.17;;;11.90;;
25525;SDS011;13424;48.424;11.258;2023-12-07T10:21:08;23.92;;;13.27;;
25525;SDS011;13424;48.424;11.258;2023-12-07T10:23:37;17.10;;;13.38;;
25525;SDS011;13424;48.424;11.258;2023-12-07T10:26:06;20.33;;;14.60;;
25525;SDS011;13424;48.424;11.258;2023-12-07T10:28:34;16.48;;;11.77;;
25525;SDS011;13424;48.424;11.258;2023-12-07T10:31:04;19.98;;;12.48;;
25525;SDS011;13424;48.424;11.258;2023-12-07T10:33:35;17.98;;;11.70;;
25525;SDS011;13424;48.424;11.258;2023-12-07T10:36:02;15.90;;;11.98;;
25525;SDS011;13424;48.424;11.258;2023-12-07T10:42:33;15.38;;;10.80;;
25525;SDS011;13424;48.424;11.258;2023-12-07T10:45:04;15.82;;;11.20;;
25525;SDS011;13424;48.424;11.258;2023-12-07T10:47:34;15.57;;;11.40;;
25525;SDS011;13424;48.424;11.258;2023-12-07T10:50:08;19.50;;;12.10;;
25525;SDS011;13424;48.424;11.258;2023-12-07T10:52:48;18.15;;;12.32;;
25525;SDS011;13424;48.424;11.258;2023-12-07T10:55:21;16.55;;;10.63;;
25525;SDS011;13424;48.424;11.258;2023-12-07T10:57:54;17.80;;;10.82;;
25525;SDS011;13424;48.424;11.258;2023-12-07T11:00:22;17.27;;;11.70;;
25525;SDS011;13424;48.424;11.258;2023-12-07T11:02:54;14.70;;;10.50;;
25525;SDS011;13424;48.424;11.258;2023-12-07T11:05:20;16.88;;;11.30;;
25525;SDS011;13424;48.424;11.258;2023-12-07T11:07:56;14.80;;;10.48;;
25525;SDS011;13424;48.424;11.258;2023-12-07T11:10:48;15.52;;;10.95;;
25525;SDS011;13424;48.424;11.258;2023-12-07T11:13:32;18.40;;;10.35;;
25525;SDS011;13424;48.424;11.258;2023-12-07T11:16:04;17.05;;;11.15;;
25525;SDS011;13424;48.424;11.258;2023-12-07T11:18:30;16.80;;;10.48;;
25525;SDS011;13424;48.424;11.258;2023-12-07T11:20:57;16.48;;;10.38;;
25525;SDS011;13424;48.424;11.258;2023-12-07T11:23:24;16.23;;;10.40;;
25525;SDS011;13424;48.424;11.258;2023-12-07T11:25:54;15.10;;;11.07;;
25525;SDS011;13424;48.424;11.258;2023-12-07T11:28:37;13.10;;;9.02;;
25525;SDS011;13424;48.424;11.258;2023-12-07T11:31:08;12.35;;;9.50;;
25525;SDS011;13424;48.424;11.258;2023-12-07T11:33:37;12.85;;;10.00;;
25525;SDS011;13424;48.424;11.258;2023-12-07T11:36:06;16.25;;;10.05;;
25525;SDS011;13424;48.424;11.258;2023-12-07T11:38:38;18.50;;;11.10;;
25525;SDS011;13424;48.424;11.258;2023-12-07T11:41:43;18.10;;;10.20;;
25525;SDS011;13424;48.424;11.258;2023-12-07T11:44:10;14.82;;;9.70;;
25525;SDS011;13424;48.424;11.258;2023-12-07T11:46:38;14.35;;;10.07;;
25525;SDS011;13424;48.424;11.258;2023-12-07T11:49:04;14.65;;;9.48;;
25525;SDS011;13424;48.424;11.258;2023-12-07T11:51:33;14.70;;;9.77;;
25525;SDS011;13424;48.424;11.258;2023-12-07T11:53:59;13.20;;;9.32;;
25525;SDS011;13424;48.424;11.258;2023-12-07T12:00:22;29.60;;;15.95;;
25525;SDS011;13424;48.424;11.258;2023-12-07T12:02:48;21.80;;;12.77;;
25525;SDS011;13424;48.424;11.258;2023-12-07T12:05:14;22.20;;;15.07;;
25525;SDS011;13424;48.424;11.258;2023-12-07T12:13:33;14.32;;;8.82;;
25525;SDS011;13424;48.424;11.258;2023-12-07T12:16:02;12.68;;;8.35;;
25525;SDS011;13424;48.424;11.258;2023-12-07T12:18:29;11.73;;;7.95;;
25525;SDS011;13424;48.424;11.258;2023-12-07T12:20:56;13.05;;;8.63;;
25525;SDS011;13424;48.424;11.258;2023-12-07T12:23:24;15.20;;;9.35;;
25525;SDS011;13424;48.424;11.258;2023-12-07T12:25:50;19.77;;;11.88;;
25525;SDS011;13424;48.424;11.258;2023-12-07T12:28:17;15.38;;;10.02;;
25525;SDS011;13424;48.424;11.258;2023-12-07T12:30:47;15.40;;;9.43;;
25525;SDS011;13424;48.424;11.258;2023-12-07T12:33:14;13.80;;;9.35;;
25525;SDS011;13424;48.424;11.258;2023-12-07T12:35:40;16.20;;;11.35;;
25525;SDS011;13424;48.424;11.258;2023-12-07T12:38:10;15.07;;;11.00;;
25525;SDS011;13424;48.424;11.258;2023-12-07T12:40:38;15.90;;;11.25;;
25525;SDS011;13424;48.424;11.258;2023-12-07T12:43:06;18.00;;;11.60;;
25525;SDS011;13424;48.424;11.258;2023-12-07T12:45:33;20.98;;;11.70;;
25525;SDS011;13424;48.424;11.258;2023-12-07T12:47:59;16.10;;;11.50;;
25525;SDS011;13424;48.424;11.258;2023-12-07T12:50:38;17.05;;;11.88;;
25525;SDS011;13424;48.424;11.258;2023-12-07T12:53:07;17.67;;;11.02;;
25525;SDS011;13424;48.424;11.258;2023-12-07T12:55:40;19.17;;;12.05;;
25525;SDS011;13424;48.424;11.258;2023-12-07T12:58:08;18.83;;;12.13;;
25525;SDS011;13424;48.424;11.258;2023-12-07T13:00:39;17.30;;;11.13;;
25525;SDS011;13424;48.424;11.258;2023-12-07T13:03:06;19.48;;;11.23;;
25525;SDS011;13424;48.424;11.258;2023-12-07T13:05:33;18.33;;;12.15;;
25525;SDS011;13424;48.424;11.258;2023-12-07T13:08:00;20.05;;;12.45;;
25525;SDS011;13424;48.424;11.258;2023-12-07T13:10:27;18.25;;;11.63;;
25525;SDS011;13424;48.424;11.258;2023-12-07T13:12:53;24.83;;;12.98;;
25525;SDS011;13424;48.424;11.258;2023-12-07T13:15:21;25.58;;;16.63;;
25525;SDS011;13424;48.424;11.258;2023-12-07T13:17:47;25.15;;;13.07;;
25525;SDS011;13424;48.424;11.258;2023-12-07T13:20:22;15.60;;;10.68;;
25525;SDS011;13424;48.424;11.258;2023-12-07T13:22:49;12.85;;;10.00;;
25525;SDS011;13424;48.424;11.258;2023-12-07T13:25:15;15.23;;;9.77;;
25525;SDS011;13424;48.424;11.258;2023-12-07T13:27:41;17.75;;;10.45;;
25525;SDS011;13424;48.424;11.258;2023-12-07T13:30:10;14.75;;;10.88;;
25525;SDS011;13424;48.424;11.258;2023-12-07T13:32:37;21.02;;;14.35;;
25525;SDS011;13424;48.424;11.258;2023-12-07T13:35:04;20.80;;;14.98;;
25525;SDS011;13424;48.424;11.258;2023-12-07T13:37:33;22.27;;;14.30;;
25525;SDS011;13424;48.424;11.258;2023-12-07T13:39:59;16.23;;;13.52;;
25525;SDS011;13424;48.424;11.258;2023-12-07T13:42:30;26.13;;;16.40;;
25525;SDS011;13424;48.424;11.258;2023-12-07T13:44:57;19.02;;;13.15;;
25525;SDS011;13424;48.424;11.258;2023-12-07T13:47:25;18.42;;;13.00;;
25525;SDS011;13424;48.424;11.258;2023-12-07T13:49:57;21.52;;;13.15;;
25525;SDS011;13424;48.424;11.258;2023-12-07T13:56:21;19.30;;;11.60;;
25525;SDS011;13424;48.424;11.258;2023-12-07T13:58:49;25.48;;;13.77;;
25525;SDS011;13424;48.424;11.258;2023-12-07T14:01:17;25.00;;;12.48;;
25525;SDS011;13424;48.424;11.258;2023-12-07T14:03:43;22.95;;;13.05;;
25525;SDS011;13424;48.424;11.258;2023-12-07T14:06:10;16.40;;;10.70;;
25525;SDS011;13424;48.424;11.258;2023-12-07T14:08:38;15.48;;;11.13;;
25525;SDS011;13424;48.424;11.258;2023-12-07T14:11:04;17.20;;;11.25;;
25525;SDS011;13424;48.424;11.258;2023-12-07T14:13:30;18.83;;;12.20;;
25525;SDS011;13424;48.424;11.258;2023-12-07T14:15:56;16.05;;;11.30;;
25525;SDS011;13424;48.424;11.258;2023-12-07T14:18:22;21.08;;;13.10;;
25525;SDS011;13424;48.424;11.258;2023-12-07T14:20:48;20.17;;;13.38;;
25525;SDS011;13424;48.424;11.258;2023-12-07T14:23:14;24.15;;;18.77;;
25525;SDS011;13424;48.424;11.258;2023-12-07T14:25:40;18.80;;;13.63;;
25525;SDS011;13424;48.424;11.258;2023-12-07T14:30:59;18.13;;;10.95;;
25525;SDS011;13424;48.424;11.258;2023-12-07T14:33:25;17.17;;;12.23;;
25525;SDS011;13424;48.424;11.258;2023-12-07T14:35:51;21.45;;;10.68;;
25525;SDS011;13424;48.424;11.258;2023-12-07T14:38:17;16.50;;;11.00;;
25525;SDS011;13424;48.424;11.258;2023-12-07T14:40:43;18.13;;;10.60;;
25525;SDS011;13424;48.424;11.258;2023-12-07T14:43:09;18.20;;;12.10;;
25525;SDS011;13424;48.424;11.258;2023-12-07T14:45:35;19.23;;;11.95;;
25525;SDS011;13424;48.424;11.258;2023-12-07T14:48:01;23.88;;;13.90;;
25525;SDS011;13424;48.424;11.258;2023-12-07T14:50:27;34.83;;;19.50;;
25525;SDS011;13424;48.424;11.258;2023-12-07T14:52:53;21.73;;;14.60;;
25525;SDS011;13424;48.424;11.258;2023-12-07T14:55:19;24.27;;;15.32;;
25525;SDS011;13424;48.424;11.258;2023-12-07T14:57:46;26.70;;;15.45;;